createdAt,value
2018-12-24T00:02:58.670Z,100658.42
2018-12-24T00:05:27.228Z,100661.50
2018-12-24T00:08:14.936Z,100662.03
2018-12-24T00:10:43.581Z,100659.76
2018-12-24T00:13:12.178Z,100669.09
2018-12-24T00:15:40.743Z,100669.19
2018-12-24T00:18:09.326Z,100672.21
2018-12-24T00:20:37.881Z,100670.06
2018-12-24T00:23:06.469Z,100677.05
2018-12-24T00:25:54.140Z,100678.73
2018-12-24T00:28:22.734Z,100675.61
2018-12-24T00:30:51.296Z,100675.86
2018-12-24T00:33:19.883Z,100683.44
2018-12-24T00:35:48.431Z,100689.67
2018-12-24T00:38:17.007Z,100694.59
2018-12-24T00:40:45.572Z,100694.24
2018-12-24T00:43:14.175Z,100699.56
2018-12-24T00:45:42.724Z,100694.72
2018-12-24T00:48:11.346Z,100703.68
2018-12-24T00:50:39.892Z,100704.33
2018-12-24T00:53:08.482Z,100712.55
2018-12-24T00:55:37.072Z,100713.56
2018-12-24T00:58:05.613Z,100725.55
2018-12-24T01:00:34.165Z,100727.55
2018-12-24T01:03:02.748Z,100735.31
2018-12-24T01:05:31.311Z,100748.43
2018-12-24T01:08:20.532Z,100755.22
2018-12-24T01:10:49.106Z,100759.34
2018-12-24T01:13:17.690Z,100768.30
2018-12-24T01:15:46.276Z,100775.91
2018-12-24T01:18:14.898Z,100777.73
2018-12-24T01:20:43.471Z,100783.42
2018-12-24T01:23:12.090Z,100783.22
2018-12-24T01:25:40.664Z,100791.77
2018-12-24T01:28:09.301Z,100793.20
2018-12-24T01:30:37.882Z,100798.86
2018-12-24T01:33:06.464Z,100805.45
2018-12-24T01:35:35.022Z,100804.20
2018-12-24T01:38:03.609Z,100797.20
2018-12-24T01:40:32.158Z,100809.52
2018-12-24T01:43:00.736Z,100807.44
2018-12-24T01:45:29.296Z,100807.48
2018-12-24T01:47:57.878Z,100809.72
2018-12-24T01:50:26.429Z,100804.06
2018-12-24T01:52:55.014Z,100806.27
2018-12-24T01:55:23.567Z,100807.55
2018-12-24T01:57:52.153Z,100810.66
2018-12-24T02:00:20.728Z,100806.72
2018-12-24T02:02:49.322Z,100819.50
2018-12-24T02:05:17.885Z,100813.42
2018-12-24T02:07:46.471Z,100829.00
2018-12-24T02:10:15.025Z,100831.17
2018-12-24T02:12:43.616Z,100818.42
2018-12-24T02:15:12.176Z,100827.30
2018-12-24T02:17:40.850Z,100825.89
2018-12-24T02:20:09.409Z,100840.03
2018-12-24T02:22:38.038Z,100848.91
2018-12-24T02:25:06.634Z,100850.30
2018-12-24T02:27:35.213Z,100852.53
2018-12-24T02:30:24.425Z,100859.17
2018-12-24T02:32:53.013Z,100866.29
2018-12-24T02:35:21.570Z,100865.91
2018-12-24T02:37:50.139Z,100874.34
2018-12-24T02:40:18.730Z,100876.12
2018-12-24T02:43:06.624Z,100880.52
2018-12-24T02:45:35.187Z,100886.22
2018-12-24T02:48:03.771Z,100885.44
2018-12-24T02:50:32.386Z,100897.41
2018-12-24T02:53:00.961Z,100893.01
2018-12-24T02:55:48.895Z,100897.02
2018-12-24T02:58:17.483Z,100904.55
2018-12-24T03:00:46.043Z,100914.23
2018-12-24T03:03:14.628Z,100917.42
2018-12-24T03:05:43.209Z,100934.66
2018-12-24T03:08:11.809Z,100928.51
2018-12-24T03:10:40.400Z,100943.09
2018-12-24T03:13:08.971Z,100942.70
2018-12-24T03:15:37.574Z,100944.45
2018-12-24T03:18:06.176Z,100950.25
2018-12-24T03:20:34.782Z,100953.81
2018-12-24T03:23:03.374Z,100965.74
2018-12-24T03:25:31.969Z,100968.87
2018-12-24T03:28:00.529Z,100960.98
2018-12-24T03:30:49.916Z,100980.39
2018-12-24T03:33:18.479Z,100980.83
2018-12-24T03:35:47.075Z,100981.78
2018-12-24T03:38:15.640Z,100982.20
2018-12-24T03:40:44.231Z,100984.38
2018-12-24T03:43:13.239Z,100984.41
2018-12-24T03:45:43.105Z,100994.18
2018-12-24T03:48:11.680Z,101002.08
2018-12-24T03:50:40.282Z,101010.96
2018-12-24T03:53:08.882Z,101006.56
2018-12-24T03:55:37.468Z,101018.49
2018-12-24T03:58:06.070Z,101021.56
2018-12-24T04:00:34.657Z,101024.66
2018-12-24T04:03:03.270Z,101031.74
2018-12-24T04:05:31.857Z,101039.69
2018-12-24T04:08:00.421Z,101044.09
2018-12-24T04:10:29.000Z,101046.34
2018-12-24T04:12:57.584Z,101058.25
2018-12-24T04:15:26.172Z,101056.95
2018-12-24T04:17:54.782Z,101068.88
2018-12-24T04:20:23.407Z,101076.41
2018-12-24T04:22:51.943Z,101080.39
2018-12-24T04:25:20.530Z,101085.25
2018-12-24T04:27:49.109Z,101095.83
2018-12-24T04:30:17.690Z,101104.23
2018-12-24T04:32:46.306Z,101111.78
2018-12-24T04:35:14.877Z,101121.59
2018-12-24T04:37:43.496Z,101132.20
2018-12-24T04:40:12.079Z,101141.42
2018-12-24T04:42:40.699Z,101141.91
2018-12-24T04:45:09.279Z,101143.28
2018-12-24T04:47:37.849Z,101157.93
2018-12-24T04:50:06.432Z,101170.73
2018-12-24T04:52:35.076Z,101175.16
2018-12-24T04:55:03.653Z,101183.63
2018-12-24T04:57:32.250Z,101191.14
2018-12-24T05:00:00.831Z,101201.71
2018-12-24T05:02:29.412Z,101217.58
2018-12-24T05:04:57.982Z,101225.54
2018-12-24T05:07:26.549Z,101230.84
2018-12-24T05:09:55.144Z,101235.70
2018-12-24T05:12:23.720Z,101254.25
2018-12-24T05:14:52.306Z,101256.01
2018-12-24T05:17:20.896Z,101260.45
2018-12-24T05:19:49.483Z,101266.16
2018-12-24T05:22:18.038Z,101276.78
2018-12-24T05:24:46.622Z,101273.70
2018-12-24T05:27:15.196Z,101272.36
2018-12-24T05:29:43.779Z,101289.56
2018-12-24T05:32:12.343Z,101298.40
2018-12-24T05:34:40.904Z,101301.91
2018-12-24T05:37:09.487Z,101309.86
2018-12-24T05:39:38.048Z,101326.19
2018-12-24T05:42:06.626Z,101327.05
2018-12-24T05:44:35.195Z,101335.00
2018-12-24T05:47:03.777Z,101335.44
2018-12-24T05:49:32.344Z,101350.45
2018-12-24T05:52:00.926Z,101356.16
2018-12-24T05:54:29.489Z,101359.72
2018-12-24T05:56:58.061Z,101365.89
2018-12-24T05:59:26.618Z,101366.77
2018-12-24T06:01:55.205Z,101380.88
2018-12-24T06:04:23.762Z,101393.23
2018-12-24T06:06:52.346Z,101397.64
2018-12-24T06:09:20.914Z,101406.90
2018-12-24T06:11:49.500Z,101416.53
2018-12-24T06:14:18.058Z,101423.58
2018-12-24T06:16:46.641Z,101434.16
2018-12-24T06:19:15.226Z,101441.62
2018-12-24T06:21:43.808Z,101449.12
2018-12-24T06:24:12.393Z,101455.73
2018-12-24T06:26:40.991Z,101461.01
2018-12-24T06:29:09.560Z,101471.95
2018-12-24T06:31:38.147Z,101479.48
2018-12-24T06:34:06.696Z,101485.64
2018-12-24T06:36:35.275Z,101492.70
2018-12-24T06:39:24.469Z,101497.98
2018-12-24T06:41:53.119Z,101501.06
2018-12-24T06:44:21.699Z,101523.12
2018-12-24T06:46:50.298Z,101513.41
2018-12-24T06:49:18.858Z,101527.48
2018-12-24T06:51:47.462Z,101524.38
2018-12-24T06:54:16.027Z,101545.06
2018-12-24T06:56:44.613Z,101567.59
2018-12-24T06:59:13.180Z,101564.92
2018-12-24T07:01:41.788Z,101576.41
2018-12-24T07:04:10.360Z,101585.66
2018-12-24T07:06:38.945Z,101592.69
2018-12-24T07:09:07.538Z,101581.23
2018-12-24T07:11:36.137Z,101589.09
2018-12-24T07:14:04.709Z,101600.55
2018-12-24T07:16:33.308Z,101607.16
2018-12-24T07:19:01.895Z,101618.66
2018-12-24T07:21:49.614Z,101618.66
2018-12-24T07:24:18.250Z,101629.30
2018-12-24T07:26:46.827Z,101625.70
2018-12-24T07:29:15.387Z,101635.84
2018-12-24T07:31:43.966Z,101657.84
2018-12-24T07:34:12.530Z,101665.77
2018-12-24T07:36:41.131Z,101670.47
2018-12-24T07:39:09.700Z,101667.34
2018-12-24T07:41:38.293Z,101684.45
2018-12-24T07:44:06.846Z,101688.80
2018-12-24T07:46:35.429Z,101686.56
2018-12-24T07:49:03.981Z,101690.92
2018-12-24T07:51:32.599Z,101709.47
2018-12-24T07:54:01.175Z,101721.56
2018-12-24T07:56:29.753Z,101726.89
2018-12-24T07:58:58.420Z,101731.78
2018-12-24T08:01:27.001Z,101745.29
2018-12-24T08:03:55.586Z,101753.36
2018-12-24T08:06:24.134Z,101770.09
2018-12-24T08:08:52.720Z,101764.37
2018-12-24T08:11:21.288Z,101776.69
2018-12-24T08:13:49.989Z,101787.75
2018-12-24T08:16:18.559Z,101790.45
2018-12-24T08:19:06.495Z,101800.03
2018-12-24T08:21:35.130Z,101811.77
2018-12-24T08:24:03.722Z,101816.98
2018-12-24T08:26:32.273Z,101826.72
2018-12-24T08:29:00.854Z,101825.77
2018-12-24T08:34:16.859Z,101835.45
2018-12-24T08:36:45.425Z,101848.62
2018-12-24T08:39:14.071Z,101858.70
2018-12-24T08:41:42.590Z,101856.55
2018-12-24T08:44:11.185Z,101869.70
2018-12-24T08:46:39.743Z,101879.38
2018-12-24T08:49:08.341Z,101889.11
2018-12-24T08:54:26.017Z,101884.59
2018-12-24T08:56:54.594Z,101887.41
2018-12-24T08:59:23.145Z,101884.34
2018-12-24T09:01:51.714Z,101902.01
2018-12-24T09:04:20.313Z,101906.41
2018-12-24T09:06:48.953Z,101910.36
2018-12-24T09:09:18.982Z,101910.38
2018-12-24T09:11:47.804Z,101916.08
2018-12-24T09:14:35.504Z,101918.78
2018-12-24T09:17:04.059Z,101921.55
2018-12-24T09:19:32.642Z,101917.91
2018-12-24T09:22:01.210Z,101926.33
2018-12-24T09:24:29.809Z,101931.16
2018-12-24T09:26:58.376Z,101939.62
2018-12-24T09:29:26.960Z,101943.50
2018-12-24T09:31:55.524Z,101947.97
2018-12-24T09:34:24.126Z,101956.78
2018-12-24T09:36:52.698Z,101959.98
2018-12-24T09:39:21.279Z,101962.27
2018-12-24T09:41:49.831Z,101958.61
2018-12-24T09:44:18.434Z,101965.21
2018-12-24T09:46:46.994Z,101971.36
2018-12-24T09:49:15.635Z,101972.83
2018-12-24T09:51:44.209Z,101975.02
2018-12-24T09:54:12.820Z,101976.28
2018-12-24T09:56:41.459Z,101971.93
2018-12-24T09:59:10.053Z,101977.33
2018-12-24T10:01:38.596Z,101977.35
2018-12-24T10:04:28.207Z,101983.14
2018-12-24T10:09:53.027Z,101985.85
2018-12-24T10:12:21.599Z,101991.99
2018-12-24T10:14:50.192Z,102000.44
2018-12-24T10:17:18.749Z,101993.40
2018-12-24T10:19:47.332Z,101998.75
2018-12-24T10:22:15.903Z,102001.44
2018-12-24T10:24:44.472Z,102002.84
2018-12-24T10:27:13.035Z,102007.73
2018-12-24T10:30:00.986Z,102011.75
2018-12-24T10:32:29.551Z,102011.32
2018-12-24T10:34:58.153Z,102018.48
2018-12-24T10:37:26.724Z,102021.56
2018-12-24T10:40:14.581Z,102022.27
2018-12-24T10:42:43.142Z,102019.94
2018-12-24T10:45:16.316Z,102022.12
2018-12-24T10:47:42.050Z,102023.95
2018-12-24T10:50:29.829Z,102028.73
2018-12-24T10:52:58.382Z,102031.39
2018-12-24T10:55:26.967Z,102035.21
2018-12-24T10:57:55.644Z,102028.75
2018-12-24T11:00:24.236Z,102030.57
2018-12-24T11:02:52.805Z,102038.69
2018-12-24T11:05:21.389Z,102042.98
2018-12-24T11:07:49.954Z,102048.06
2018-12-24T11:10:18.537Z,102045.93
2018-12-24T11:13:06.410Z,102056.62
2018-12-24T11:15:34.990Z,102056.11
2018-12-24T11:23:25.373Z,102066.17
2018-12-24T11:25:53.967Z,102067.86
2018-12-24T11:28:22.541Z,102074.10
2018-12-24T11:30:51.157Z,102058.19
2018-12-24T11:33:19.724Z,102060.39
2018-12-24T11:35:48.323Z,102064.34
2018-12-24T11:38:16.913Z,102063.79
2018-12-24T11:40:45.507Z,102057.16
2018-12-24T11:43:14.055Z,102055.04
2018-12-24T11:45:42.664Z,102059.95
2018-12-24T11:48:11.244Z,102070.95
2018-12-24T11:50:39.848Z,102066.56
2018-12-24T11:53:08.418Z,102070.95
2018-12-24T11:55:37.013Z,102080.80
2018-12-24T11:58:24.767Z,102080.47
2018-12-24T12:00:53.359Z,102083.95
2018-12-24T12:03:21.920Z,102083.73
2018-12-24T12:05:50.505Z,102095.13
2018-12-24T12:08:19.069Z,102092.55
2018-12-24T12:10:47.648Z,102095.75
2018-12-24T12:13:16.222Z,102098.91
2018-12-24T12:16:03.977Z,102098.48
2018-12-24T12:18:32.494Z,102099.47
2018-12-24T12:21:20.197Z,102109.98
2018-12-24T12:23:48.763Z,102107.42
2018-12-24T12:26:17.348Z,102103.77
2018-12-24T12:28:45.923Z,102108.80
2018-12-24T12:31:14.529Z,102103.46
2018-12-24T12:33:43.093Z,102114.16
2018-12-24T12:36:11.675Z,102112.69
2018-12-24T12:38:40.280Z,102113.59
2018-12-24T12:41:08.864Z,102120.69
2018-12-24T12:43:37.430Z,102117.25
2018-12-24T12:46:06.020Z,102112.16
2018-12-24T12:48:34.591Z,102125.42
2018-12-24T12:51:03.282Z,102125.80
2018-12-24T12:53:31.891Z,102131.03
2018-12-24T12:56:00.521Z,102135.08
2018-12-24T12:58:29.064Z,102145.58
2018-12-24T13:00:57.662Z,102145.27
2018-12-24T13:03:26.227Z,102157.98
2018-12-24T13:05:54.815Z,102153.56
2018-12-24T13:08:23.382Z,102155.70
2018-12-24T13:10:51.986Z,102168.55
2018-12-24T13:13:20.549Z,102167.23
2018-12-24T13:15:49.137Z,102174.74
2018-12-24T13:18:17.732Z,102175.60
2018-12-24T13:20:46.402Z,102182.23
2018-12-24T13:23:14.973Z,102183.97
2018-12-24T13:25:43.571Z,102190.53
2018-12-24T13:28:12.191Z,102190.58
2018-12-24T13:30:40.775Z,102191.47
2018-12-24T13:33:09.358Z,102187.45
2018-12-24T13:35:37.954Z,102198.03
2018-12-24T13:38:06.578Z,102201.99
2018-12-24T13:40:35.180Z,102206.89
2018-12-24T13:43:03.761Z,102204.23
2018-12-24T13:45:32.367Z,102209.55
2018-12-24T13:48:08.461Z,102211.83
2018-12-24T13:50:37.044Z,102217.92
2018-12-24T13:53:05.674Z,102219.32
2018-12-24T13:55:34.265Z,102230.70
2018-12-24T13:58:02.828Z,102240.97
2018-12-24T14:00:31.408Z,102236.55
2018-12-24T14:02:59.965Z,102245.30
2018-12-24T14:08:02.406Z,102252.06
2018-12-24T14:10:30.971Z,102256.48
2018-12-24T14:12:59.529Z,102262.27
2018-12-24T14:15:28.105Z,102256.47
2018-12-24T14:17:56.681Z,102258.83
2018-12-24T14:22:58.820Z,102252.59
2018-12-24T14:25:27.406Z,102252.48
2018-12-24T14:27:56.022Z,102257.79
2018-12-24T14:30:24.602Z,102259.19
2018-12-24T14:32:53.189Z,102259.25
2018-12-24T14:35:41.020Z,102266.75
2018-12-24T14:38:09.579Z,102267.19
2018-12-24T14:40:38.171Z,102270.70
2018-12-24T14:43:06.748Z,102280.36
2018-12-24T14:45:35.332Z,102278.52
2018-12-24T14:48:03.915Z,102283.87
2018-12-24T14:50:32.497Z,102285.20
2018-12-24T14:53:01.064Z,102285.20
2018-12-24T14:55:29.657Z,102298.80
2018-12-24T14:58:17.406Z,102305.41
2018-12-24T15:00:45.987Z,102310.77
2018-12-24T15:03:14.553Z,102316.92
2018-12-24T15:05:43.150Z,102319.50
2018-12-24T15:08:11.719Z,102329.30
2018-12-24T15:10:40.301Z,102333.25
2018-12-24T15:13:08.882Z,102337.12
2018-12-24T15:15:37.473Z,102343.84
2018-12-24T15:18:06.023Z,102343.44
2018-12-24T15:20:34.585Z,102351.41
2018-12-24T15:23:03.187Z,102349.77
2018-12-24T15:25:31.750Z,102356.31
2018-12-24T15:28:00.353Z,102352.80
2018-12-24T15:30:28.901Z,102344.41
2018-12-24T15:32:57.498Z,102341.83
2018-12-24T15:35:26.057Z,102344.57
2018-12-24T15:37:54.710Z,102354.64
2018-12-24T15:40:23.274Z,102342.57
2018-12-24T15:42:51.860Z,102343.62
2018-12-24T15:45:20.419Z,102344.20
2018-12-24T15:47:49.002Z,102339.70
2018-12-24T15:50:17.645Z,102337.89
2018-12-24T15:52:46.230Z,102340.39
2018-12-24T15:55:14.786Z,102340.91
2018-12-24T15:57:43.394Z,102346.20
2018-12-24T16:00:11.981Z,102346.34
2018-12-24T16:02:40.561Z,102352.51
2018-12-24T16:05:09.125Z,102348.67
2018-12-24T16:07:37.709Z,102347.28
2018-12-24T16:10:06.347Z,102330.47
2018-12-24T16:12:34.948Z,102337.58
2018-12-24T16:15:03.501Z,102329.16
2018-12-24T16:17:32.114Z,102336.28
2018-12-24T16:20:00.695Z,102339.80
2018-12-24T16:22:31.044Z,102333.75
2018-12-24T16:24:59.563Z,102328.84
2018-12-24T16:30:01.672Z,102318.20
2018-12-24T16:32:30.250Z,102317.30
2018-12-24T16:34:58.812Z,102327.06
2018-12-24T16:37:27.441Z,102338.98
2018-12-24T16:39:55.985Z,102346.54
2018-12-24T16:42:24.572Z,102353.67
2018-12-24T16:44:53.201Z,102350.66
2018-12-24T16:47:21.785Z,102350.54
2018-12-24T16:49:50.340Z,102343.19
2018-12-24T16:52:18.920Z,102348.63
2018-12-24T16:57:36.572Z,102359.77
2018-12-24T17:00:25.929Z,102367.29
2018-12-24T17:02:54.523Z,102380.52
2018-12-24T17:05:23.088Z,102378.08
2018-12-24T17:07:51.679Z,102378.61
2018-12-24T17:10:20.274Z,102389.34
2018-12-24T17:12:48.858Z,102389.72
2018-12-24T17:15:17.432Z,102375.45
2018-12-24T17:17:46.030Z,102374.71
2018-12-24T17:20:14.596Z,102374.71
2018-12-24T17:22:43.153Z,102385.81
2018-12-24T17:25:11.736Z,102378.31
2018-12-24T17:27:40.386Z,102381.75
2018-12-24T17:30:08.967Z,102386.55
2018-12-24T17:32:37.530Z,102385.75
2018-12-24T17:35:26.906Z,102384.33
2018-12-24T17:37:55.488Z,102382.20
2018-12-24T17:40:24.058Z,102383.16
2018-12-24T17:42:52.688Z,102386.31
2018-12-24T17:45:21.300Z,102381.91
2018-12-24T17:47:49.847Z,102386.27
2018-12-24T17:50:37.544Z,102388.10
2018-12-24T17:53:06.140Z,102381.48
2018-12-24T17:55:34.713Z,102387.53
2018-12-24T17:58:03.267Z,102384.41
2018-12-24T18:00:31.847Z,102380.94
2018-12-24T18:03:00.401Z,102386.67
2018-12-24T18:05:28.981Z,102372.94
2018-12-24T18:07:57.543Z,102376.91
2018-12-24T18:10:26.133Z,102384.91
2018-12-24T18:12:54.695Z,102373.83
2018-12-24T18:15:23.288Z,102370.45
2018-12-24T18:17:51.859Z,102362.57
2018-12-24T18:20:20.456Z,102361.13
2018-12-24T18:22:49.020Z,102362.08
2018-12-24T18:25:17.633Z,102360.36
2018-12-24T18:27:46.215Z,102361.19
2018-12-24T18:30:14.850Z,102363.38
2018-12-24T18:32:43.412Z,102356.47
2018-12-24T18:35:11.985Z,102352.05
2018-12-24T18:37:40.553Z,102353.39
2018-12-24T18:40:09.138Z,102353.31
2018-12-24T18:42:37.735Z,102341.90
2018-12-24T18:45:06.376Z,102347.20
2018-12-24T18:47:34.934Z,102348.53
2018-12-24T18:50:24.143Z,102348.59
2018-12-24T18:52:52.707Z,102355.43
2018-12-24T18:55:21.303Z,102352.56
2018-12-24T18:57:49.857Z,102341.84
2018-12-24T19:00:18.448Z,102345.46
2018-12-24T19:02:47.010Z,102350.23
2018-12-24T19:05:15.615Z,102339.66
2018-12-24T19:07:44.172Z,102335.88
2018-12-24T19:10:12.763Z,102339.80
2018-12-24T19:12:41.347Z,102344.65
2018-12-24T19:15:09.929Z,102342.78
2018-12-24T19:17:41.522Z,102349.87
2018-12-24T19:20:29.608Z,102353.00
2018-12-24T19:22:58.222Z,102354.20
2018-12-24T19:25:26.793Z,102355.22
2018-12-24T19:27:55.387Z,102350.24
2018-12-24T19:30:23.972Z,102365.28
2018-12-24T19:32:52.549Z,102366.70
2018-12-24T19:38:08.566Z,102390.66
2018-12-24T19:40:37.123Z,102390.08
2018-12-24T19:43:05.709Z,102395.87
2018-12-24T19:45:34.270Z,102397.27
2018-12-24T19:48:02.877Z,102398.16
2018-12-24T19:50:31.466Z,102409.98
2018-12-24T19:53:00.074Z,102402.14
2018-12-24T19:55:28.643Z,102410.13
2018-12-24T19:57:57.277Z,102392.36
2018-12-24T20:00:25.871Z,102402.08
2018-12-24T20:02:54.460Z,102395.06
2018-12-24T20:05:23.033Z,102393.81
2018-12-24T20:07:51.629Z,102398.23
2018-12-24T20:10:20.201Z,102405.66
2018-12-24T20:12:48.809Z,102404.86
2018-12-24T20:15:17.483Z,102404.53
2018-12-24T20:17:46.114Z,102399.63
2018-12-24T20:20:14.765Z,102402.14
2018-12-24T20:22:43.350Z,102406.67
2018-12-24T20:25:11.917Z,102405.81
2018-12-24T20:27:40.525Z,102405.87
2018-12-24T20:30:28.250Z,102403.52
2018-12-24T20:35:30.709Z,102406.88
2018-12-24T20:37:59.301Z,102410.81
2018-12-24T20:40:27.916Z,102412.13
2018-12-24T20:42:56.469Z,102415.14
2018-12-24T20:45:25.067Z,102408.94
2018-12-24T20:47:53.662Z,102399.75
2018-12-24T20:50:22.267Z,102406.02
2018-12-24T20:52:50.976Z,102403.80
2018-12-24T20:55:19.585Z,102399.33
2018-12-24T20:57:48.141Z,102393.20
2018-12-24T21:00:16.726Z,102406.08
2018-12-24T21:02:45.292Z,102398.05
2018-12-24T21:05:13.875Z,102393.22
2018-12-24T21:07:42.750Z,102395.42
2018-12-24T21:10:11.355Z,102392.78
2018-12-24T21:12:39.938Z,102391.02
2018-12-24T21:15:08.535Z,102390.18
2018-12-24T21:17:38.992Z,102372.16
2018-12-24T21:20:28.349Z,102366.87
2018-12-24T21:22:56.926Z,102365.55
2018-12-24T21:25:25.606Z,102366.80
2018-12-24T21:27:54.153Z,102363.27
2018-12-24T21:30:22.814Z,102362.01
2018-12-24T21:32:51.382Z,102362.02
2018-12-24T21:35:19.968Z,102355.02
2018-12-24T21:37:48.525Z,102351.59
2018-12-24T21:40:17.320Z,102346.73
2018-12-24T21:42:54.415Z,102342.16
2018-12-24T21:45:16.264Z,102337.73
2018-12-24T21:47:44.821Z,102329.40
2018-12-24T21:53:00.916Z,102334.33
2018-12-24T21:58:16.989Z,102335.45
2018-12-24T22:00:45.575Z,102327.91
2018-12-24T22:03:14.138Z,102332.86
2018-12-24T22:05:42.843Z,102335.09
2018-12-24T22:08:11.414Z,102335.09
2018-12-24T22:10:39.962Z,102349.45
2018-12-24T22:13:08.710Z,102353.55
2018-12-24T22:15:37.351Z,102360.25
2018-12-24T22:18:05.917Z,102363.78
2018-12-24T22:23:27.791Z,102370.45
2018-12-24T22:25:56.384Z,102369.13
2018-12-24T22:28:25.139Z,102367.39
2018-12-24T22:30:53.710Z,102366.47
2018-12-24T22:33:22.302Z,102360.38
2018-12-24T22:35:50.881Z,102359.06
2018-12-24T22:38:19.655Z,102361.81
2018-12-24T22:40:48.218Z,102353.88
2018-12-24T22:43:16.872Z,102362.31
2018-12-24T22:45:45.508Z,102361.45
2018-12-24T22:48:14.106Z,102349.14
2018-12-24T22:50:42.658Z,102345.17
2018-12-24T22:53:11.436Z,102353.67
2018-12-24T22:58:27.729Z,102344.45
2018-12-24T23:03:45.340Z,102350.32
2018-12-24T23:06:13.910Z,102344.63
2018-12-24T23:11:36.305Z,102346.01
2018-12-24T23:14:04.890Z,102346.01
2018-12-24T23:16:52.666Z,102341.16
2018-12-24T23:19:21.220Z,102346.06
2018-12-24T23:22:11.070Z,102345.67
2018-12-24T23:24:39.631Z,102346.57
2018-12-24T23:27:08.257Z,102338.62
2018-12-24T23:29:56.133Z,102334.69
2018-12-24T23:32:24.716Z,102345.30
2018-12-24T23:34:53.353Z,102347.12
2018-12-24T23:37:22.004Z,102348.87
2018-12-24T23:39:50.574Z,102341.41
2018-12-24T23:42:20.881Z,102339.16
2018-12-24T23:44:49.510Z,102336.11
2018-12-24T23:47:18.173Z,102337.45
2018-12-24T23:49:46.744Z,102342.70
2018-12-24T23:52:15.563Z,102345.00
2018-12-24T23:57:31.875Z,102342.80
